createdAt,value
2023-04-18T00:01:59.055Z,98709.03
2023-04-18T00:04:26.908Z,98704.88
2023-04-18T00:06:54.488Z,98704.44
2023-04-18T00:09:22.074Z,98702.56
2023-04-18T00:11:49.579Z,98692.78
2023-04-18T00:14:17.412Z,98688.81
2023-04-18T00:16:44.955Z,98693.59
2023-04-18T00:19:14.336Z,98692.78
2023-04-18T00:21:42.031Z,98694.44
2023-04-18T00:24:12.502Z,98698.63
2023-04-18T00:26:40.558Z,98691.94
2023-04-18T00:29:09.013Z,98689.25
2023-04-18T00:31:37.384Z,98685.69
2023-04-18T00:34:04.861Z,98678.22
2023-04-18T00:36:33.789Z,98682.59
2023-04-18T00:39:01.391Z,98678.22
2023-04-18T00:41:30.520Z,98681.56
2023-04-18T00:43:58.411Z,98685.31
2023-04-18T00:46:25.964Z,98680.28
2023-04-18T00:48:53.540Z,98681.97
2023-04-18T00:51:21.319Z,98679.47
2023-04-18T00:53:50.737Z,98676.34
2023-04-18T00:56:18.420Z,98676.56
2023-04-18T00:58:46.089Z,98677.84
2023-04-18T01:01:14.251Z,98675.72
2023-04-18T01:03:41.911Z,98674.06
2023-04-18T01:06:09.784Z,98679.03
2023-04-18T01:08:38.301Z,98677.38
2023-04-18T01:11:07.345Z,98677.56
2023-04-18T01:13:35.281Z,98674.25
2023-04-18T01:16:04.664Z,98678.41
2023-04-18T01:18:32.215Z,98689.03
2023-04-18T01:20:59.969Z,98692.13
2023-04-18T01:23:27.464Z,98689.44
2023-04-18T01:25:56.533Z,98684.44
2023-04-18T01:28:26.290Z,98684.88
2023-04-18T01:30:56.368Z,98680.06
2023-04-18T01:33:24.330Z,98677.81
2023-04-18T01:35:51.756Z,98681.75
2023-04-18T01:38:19.232Z,98678.63
2023-04-18T01:40:47.415Z,98693.19
2023-04-18T01:43:17.204Z,98682.16
2023-04-18T01:45:44.675Z,98678.63
2023-04-18T01:48:12.207Z,98681.75
2023-04-18T01:50:42.934Z,98688.00
2023-04-18T01:53:11.324Z,98683.81
2023-04-18T01:55:38.852Z,98688.00
2023-04-18T01:58:06.961Z,98682.97
2023-04-18T02:00:36.021Z,98685.28
2023-04-18T02:03:03.730Z,98691.09
2023-04-18T02:05:31.275Z,98687.16
2023-04-18T02:08:00.095Z,98690.72
2023-04-18T02:10:27.688Z,98693.41
2023-04-18T02:12:55.134Z,98687.78
2023-04-18T02:15:24.520Z,98693.59
2023-04-18T02:17:53.573Z,98696.94
2023-04-18T02:20:23.943Z,98696.78
2023-04-18T02:22:51.395Z,98698.63
2023-04-18T02:25:19.043Z,98696.78
2023-04-18T02:27:48.141Z,98696.13
2023-04-18T02:30:16.017Z,98700.69
2023-04-18T02:32:43.507Z,98701.72
2023-04-18T02:35:12.487Z,98700.91
2023-04-18T02:37:40.470Z,98706.50
2023-04-18T02:40:09.568Z,98708.78
2023-04-18T02:42:37.336Z,98704.41
2023-04-18T02:45:05.803Z,98718.75
2023-04-18T02:47:40.524Z,98717.09
2023-04-18T02:50:12.998Z,98711.91
2023-04-18T02:52:40.839Z,98719.78
2023-04-18T02:55:09.904Z,98721.06
2023-04-18T02:57:40.787Z,98726.81
2023-04-18T03:00:37.487Z,98720.97
2023-04-18T03:03:30.178Z,98724.31
2023-04-18T03:06:16.136Z,98723.94
2023-04-18T03:08:43.740Z,98734.75
2023-04-18T03:11:11.269Z,98731.41
2023-04-18T03:13:38.891Z,98731.41
2023-04-18T03:16:07.198Z,98736.16
2023-04-18T03:18:35.075Z,98733.06
2023-04-18T03:21:03.180Z,98734.75
2023-04-18T03:23:34.226Z,98736.22
2023-04-18T03:26:05.543Z,98739.94
2023-04-18T03:28:35.150Z,98740.16
2023-04-18T03:31:02.962Z,98741.81
2023-04-18T03:33:33.042Z,98746.38
2023-04-18T03:36:08.539Z,98750.97
2023-04-18T03:38:38.663Z,98743.47
2023-04-18T03:41:06.876Z,98747.22
2023-04-18T03:43:37.069Z,98750.56
2023-04-18T03:46:05.492Z,98762.41
2023-04-18T03:48:33.704Z,98763.44
2023-04-18T03:51:02.744Z,98762.81
2023-04-18T03:53:31.920Z,98768.84
2023-04-18T03:56:01.504Z,98766.34
2023-04-18T03:58:43.438Z,98770.28
2023-04-18T04:01:11.110Z,98768.94
2023-04-18T04:03:39.171Z,98769.44
2023-04-18T04:06:07.070Z,98762.88
2023-04-18T04:08:34.695Z,98766.28
2023-04-18T04:11:04.691Z,98769.19
2023-04-18T04:13:32.178Z,98767.16
2023-04-18T04:16:00.240Z,98764.03
2023-04-18T04:18:27.917Z,98770.50
2023-04-18T04:20:56.272Z,98769.00
2023-04-18T04:23:34.262Z,98774.22
2023-04-18T04:26:02.407Z,98772.56
2023-04-18T04:28:49.927Z,98779.63
2023-04-18T04:31:21.375Z,98777.09
2023-04-18T04:33:50.386Z,98788.72
2023-04-18T04:36:20.362Z,98786.03
2023-04-18T04:38:49.789Z,98781.06
2023-04-18T04:41:19.050Z,98781.34
2023-04-18T04:43:46.610Z,98773.22
2023-04-18T04:46:19.930Z,98775.69
2023-04-18T04:48:50.148Z,98784.66
2023-04-18T04:51:19.331Z,98778.47
2023-04-18T04:53:47.114Z,98778.00
2023-04-18T04:56:14.958Z,98785.69
2023-04-18T04:58:43.037Z,98787.19
2023-04-18T05:01:17.239Z,98785.09
2023-04-18T05:03:45.331Z,98795.41
2023-04-18T05:06:13.116Z,98797.06
2023-04-18T05:08:40.592Z,98785.88
2023-04-18T05:11:08.085Z,98788.00
2023-04-18T05:13:35.569Z,98793.03
2023-04-18T05:16:03.265Z,98796.84
2023-04-18T05:18:34.930Z,98798.50
2023-04-18T05:21:02.845Z,98805.97
2023-04-18T05:23:30.527Z,98803.69
2023-04-18T05:25:58.141Z,98805.59
2023-04-18T05:28:26.467Z,98820.78
2023-04-18T05:30:54.015Z,98824.56
2023-04-18T05:33:21.706Z,98827.00
2023-04-18T05:35:50.770Z,98823.44
2023-04-18T05:38:18.245Z,98830.97
2023-04-18T05:40:45.803Z,98825.50
2023-04-18T05:43:13.454Z,98826.72
2023-04-18T05:45:41.243Z,98841.06
2023-04-18T05:48:08.768Z,98840.84
2023-04-18T05:50:36.237Z,98835.28
2023-04-18T05:53:05.359Z,98841.59
2023-04-18T05:55:33.021Z,98844.44
2023-04-18T05:58:00.568Z,98846.88
2023-04-18T06:00:28.143Z,98846.19
2023-04-18T06:02:55.883Z,98843.16
2023-04-18T06:05:23.948Z,98848.75
2023-04-18T06:07:51.744Z,98852.22
2023-04-18T06:10:20.798Z,98844.34
2023-04-18T06:12:48.251Z,98850.38
2023-04-18T06:15:15.719Z,98854.78
2023-04-18T06:17:43.945Z,98856.31
2023-04-18T06:20:12.492Z,98856.72
2023-04-18T06:22:40.013Z,98853.50
2023-04-18T06:25:08.119Z,98851.13
2023-04-18T06:27:37.089Z,98854.69
2023-04-18T06:30:06.649Z,98860.25
2023-04-18T06:32:34.333Z,98860.63
2023-04-18T06:35:01.888Z,98863.63
2023-04-18T06:37:29.646Z,98866.88
2023-04-18T06:39:57.128Z,98870.97
2023-04-18T06:42:24.738Z,98867.38
2023-04-18T06:44:56.294Z,98864.66
2023-04-18T06:47:23.893Z,98863.13
2023-04-18T06:49:51.552Z,98876.81
2023-04-18T06:52:19.118Z,98871.66
2023-04-18T06:54:46.818Z,98873.56
2023-04-18T06:57:14.409Z,98868.03
2023-04-18T06:59:41.874Z,98866.66
2023-04-18T07:02:11.631Z,98871.69
2023-04-18T07:04:39.143Z,98868.34
2023-04-18T07:07:06.841Z,98870.38
2023-04-18T07:09:34.409Z,98867.38
2023-04-18T07:12:01.929Z,98867.16
2023-04-18T07:14:29.492Z,98861.84
2023-04-18T07:16:57.024Z,98871.50
2023-04-18T07:19:26.017Z,98878.97
2023-04-18T07:21:53.512Z,98892.53
2023-04-18T07:24:20.963Z,98910.59
2023-04-18T07:26:48.530Z,98910.13
2023-04-18T07:29:16.059Z,98906.22
2023-04-18T07:31:43.642Z,98910.91
2023-04-18T07:34:11.301Z,98916.69
2023-04-18T07:36:41.200Z,98918.75
2023-04-18T07:39:08.783Z,98910.41
2023-04-18T07:41:36.396Z,98913.13
2023-04-18T07:44:04.780Z,98918.06
2023-04-18T07:46:32.814Z,98907.19
2023-04-18T07:49:00.562Z,98900.75
2023-04-18T07:51:28.503Z,98900.47
2023-04-18T07:53:57.534Z,98903.66
2023-04-18T07:56:25.200Z,98911.19
2023-04-18T07:58:53.375Z,98904.09
2023-04-18T08:01:21.104Z,98899.72
2023-04-18T08:03:48.738Z,98901.34
2023-04-18T08:06:16.946Z,98911.56
2023-04-18T08:08:44.704Z,98909.00
2023-04-18T08:11:13.896Z,98904.78
2023-04-18T08:13:41.378Z,98898.75
2023-04-18T08:16:09.393Z,98910.53
2023-04-18T08:18:36.928Z,98914.44
2023-04-18T08:21:05.046Z,98904.31
2023-04-18T08:23:32.703Z,98905.06
2023-04-18T08:26:00.308Z,98910.59
2023-04-18T08:28:29.356Z,98914.00
2023-04-18T08:30:57.010Z,98901.09
2023-04-18T08:33:24.743Z,98908.59
2023-04-18T08:35:52.324Z,98912.03
2023-04-18T08:38:20.119Z,98917.19
2023-04-18T08:40:48.135Z,98922.59
2023-04-18T08:43:15.769Z,98923.97
2023-04-18T08:45:45.363Z,98930.91
2023-04-18T08:48:13.437Z,98932.19
2023-04-18T08:50:41.478Z,98933.97
2023-04-18T08:53:09.507Z,98938.59
2023-04-18T08:55:37.371Z,98939.69
2023-04-18T08:58:04.966Z,98942.22
2023-04-18T09:00:32.872Z,98942.22
2023-04-18T09:03:01.956Z,98953.72
2023-04-18T09:05:29.587Z,98948.81
2023-04-18T09:07:57.117Z,98954.13
2023-04-18T09:10:29.398Z,98956.59
2023-04-18T09:12:58.016Z,98956.34
2023-04-18T09:15:27.508Z,98958.56
2023-04-18T09:17:56.582Z,98962.75
2023-04-18T09:20:30.845Z,98969.25
2023-04-18T09:22:58.394Z,98972.84
2023-04-18T09:25:27.906Z,98976.63
2023-04-18T09:27:56.082Z,98987.19
2023-04-18T09:30:36.843Z,98989.38
2023-04-18T09:33:06.603Z,98987.22
2023-04-18T09:35:35.458Z,98996.44
2023-04-18T09:38:03.688Z,98990.63
2023-04-18T09:40:31.542Z,98992.63
2023-04-18T09:42:59.165Z,98992.25
2023-04-18T09:45:27.461Z,98994.38
2023-04-18T09:47:55.697Z,98991.75
2023-04-18T09:50:23.462Z,98991.66
2023-04-18T09:52:53.480Z,98992.69
2023-04-18T09:55:21.511Z,98997.66
2023-04-18T09:57:49.190Z,98995.91
2023-04-18T10:00:22.444Z,99005.00
2023-04-18T10:02:57.499Z,99015.69
2023-04-18T10:05:27.046Z,99018.84
2023-04-18T10:07:57.128Z,99030.06
2023-04-18T10:10:25.399Z,99033.38
2023-04-18T10:12:54.870Z,99031.69
2023-04-18T10:15:24.893Z,99042.97
2023-04-18T10:18:03.513Z,99050.47
2023-04-18T10:20:33.981Z,99055.38
2023-04-18T10:23:35.146Z,99063.59
2023-04-18T10:26:03.432Z,99055.38
2023-04-18T10:28:52.346Z,99048.22
2023-04-18T10:31:20.938Z,99047.31
2023-04-18T10:34:00.747Z,99049.13
2023-04-18T10:36:33.007Z,99057.47
2023-04-18T10:39:20.245Z,99057.06
2023-04-18T10:41:50.958Z,99054.38
2023-04-18T10:44:22.123Z,99056.22
2023-04-18T10:47:32.064Z,99061.16
2023-04-18T10:50:06.031Z,99069.06
2023-04-18T10:52:34.242Z,99075.59
2023-04-18T10:55:13.690Z,99080.63
2023-04-18T10:57:42.679Z,99091.97
2023-04-18T11:00:12.872Z,99088.25
2023-04-18T11:02:41.554Z,99099.53
2023-04-18T11:05:10.172Z,99098.75
2023-04-18T11:07:40.427Z,99093.25
2023-04-18T11:10:10.888Z,99100.72
2023-04-18T11:12:39.957Z,99100.25
2023-04-18T11:15:11.817Z,99095.03
2023-04-18T11:17:40.346Z,99102.22
2023-04-18T11:20:10.133Z,99106.88
2023-04-18T11:22:47.477Z,99108.50
2023-04-18T11:25:18.634Z,99110.22
2023-04-18T11:27:48.420Z,99114.22
2023-04-18T11:30:16.245Z,99118.44
2023-04-18T11:32:44.386Z,99116.47
2023-04-18T11:35:13.041Z,99119.53
2023-04-18T11:37:41.394Z,99121.22
2023-04-18T11:40:10.328Z,99118.31
2023-04-18T11:42:40.929Z,99120.25
2023-04-18T11:45:12.554Z,99131.25
2023-04-18T11:47:41.412Z,99135.63
2023-04-18T11:50:10.343Z,99129.78
2023-04-18T11:52:38.135Z,99122.97
2023-04-18T11:55:13.885Z,99133.69
2023-04-18T11:57:43.409Z,99133.97
2023-04-18T12:00:11.929Z,99140.31
2023-04-18T12:02:41.763Z,99143.69
2023-04-18T12:05:10.340Z,99150.38
2023-04-18T12:07:39.110Z,99148.44
2023-04-18T12:10:08.487Z,99156.91
2023-04-18T12:12:36.681Z,99158.38
2023-04-18T12:15:14.210Z,99167.97
2023-04-18T12:17:44.012Z,99162.66
2023-04-18T12:20:12.809Z,99169.63
2023-04-18T12:22:45.217Z,99170.94
2023-04-18T12:25:18.039Z,99168.72
2023-04-18T12:27:53.744Z,99172.84
2023-04-18T12:30:23.668Z,99169.44
2023-04-18T12:32:53.428Z,99181.69
2023-04-18T12:35:21.507Z,99178.69
2023-04-18T12:37:50.310Z,99180.47
2023-04-18T12:40:18.426Z,99182.22
2023-04-18T12:42:47.209Z,99185.97
2023-04-18T12:45:15.789Z,99188.03
2023-04-18T12:47:46.070Z,99184.47
2023-04-18T12:50:16.787Z,99193.22
2023-04-18T12:52:44.516Z,99189.41
2023-04-18T12:55:13.433Z,99191.06
2023-04-18T12:57:42.078Z,99194.25
2023-04-18T13:00:11.279Z,99194.25
2023-04-18T13:02:41.142Z,99195.19
2023-04-18T13:05:11.812Z,99200.66
2023-04-18T13:07:40.234Z,99204.75
2023-04-18T13:10:08.966Z,99208.22
2023-04-18T13:12:36.574Z,99202.44
2023-04-18T13:15:04.330Z,99205.03
2023-04-18T13:17:32.319Z,99204.66
2023-04-18T13:19:59.994Z,99200.59
2023-04-18T13:22:29.075Z,99205.22
2023-04-18T13:24:56.655Z,99209.81
2023-04-18T13:27:24.326Z,99207.28
2023-04-18T13:29:52.060Z,99213.16
2023-04-18T13:32:20.286Z,99216.41
2023-04-18T13:34:48.443Z,99213.63
2023-04-18T13:37:16.040Z,99215.47
2023-04-18T13:39:45.097Z,99214.81
2023-04-18T13:42:14.070Z,99214.72
2023-04-18T13:44:45.139Z,99226.19
2023-04-18T13:47:12.662Z,99221.44
2023-04-18T13:49:40.371Z,99230.22
2023-04-18T13:52:08.027Z,99228.88
2023-04-18T13:54:36.704Z,99225.06
2023-04-18T13:57:05.931Z,99228.41
2023-04-18T13:59:33.551Z,99230.38
2023-04-18T14:02:01.166Z,99225.53
2023-04-18T14:04:29.072Z,99236.03
2023-04-18T14:06:56.928Z,99235.69
2023-04-18T14:09:25.011Z,99237.75
2023-04-18T14:11:52.904Z,99244.63
2023-04-18T14:14:23.355Z,99248.19
2023-04-18T14:16:51.172Z,99248.81
2023-04-18T14:19:18.802Z,99249.47
2023-04-18T14:21:47.351Z,99246.28
2023-04-18T14:24:15.096Z,99251.25
2023-04-18T14:26:42.718Z,99256.66
2023-04-18T14:29:10.492Z,99258.69
2023-04-18T14:31:39.466Z,99269.50
2023-04-18T14:34:07.008Z,99269.13
2023-04-18T14:36:34.976Z,99276.56
2023-04-18T14:39:02.505Z,99282.81
2023-04-18T14:41:29.985Z,99288.59
2023-04-18T14:43:57.486Z,99289.81
2023-04-18T14:46:25.239Z,99289.97
2023-04-18T14:48:54.880Z,99293.03
2023-04-18T14:51:23.162Z,99303.00
2023-04-18T14:53:50.731Z,99311.41
2023-04-18T14:56:18.843Z,99304.81
2023-04-18T14:58:46.357Z,99310.56
2023-04-18T15:01:14.008Z,99313.25
2023-04-18T15:03:41.906Z,99316.16
2023-04-18T15:06:11.964Z,99326.34
2023-04-18T15:08:39.713Z,99337.44
2023-04-18T15:11:07.875Z,99334.59
2023-04-18T15:13:36.217Z,99342.16
2023-04-18T15:16:04.272Z,99344.31
2023-04-18T15:18:31.794Z,99346.00
2023-04-18T15:21:00.430Z,99349.44
2023-04-18T15:23:29.634Z,99350.97
2023-04-18T15:25:57.224Z,99355.16
2023-04-18T15:28:26.006Z,99362.06
2023-04-18T15:30:53.478Z,99368.78
2023-04-18T15:33:21.195Z,99366.06
2023-04-18T15:35:49.450Z,99374.34
2023-04-18T15:38:17.280Z,99384.72
2023-04-18T15:40:46.462Z,99391.09
2023-04-18T15:43:14.295Z,99392.13
2023-04-18T15:45:41.870Z,99392.31
2023-04-18T15:48:09.494Z,99393.50
2023-04-18T15:50:37.053Z,99395.56
2023-04-18T15:53:04.738Z,99400.09
2023-04-18T15:55:32.325Z,99401.44
2023-04-18T15:58:01.380Z,99407.13
2023-04-18T16:00:29.891Z,99411.16
2023-04-18T16:02:57.578Z,99413.66
2023-04-18T16:05:25.412Z,99410.44
2023-04-18T16:07:53.107Z,99425.97
2023-04-18T16:10:21.057Z,99423.63
2023-04-18T16:12:49.078Z,99428.84
2023-04-18T16:15:19.474Z,99426.38
2023-04-18T16:17:48.097Z,99427.22
2023-04-18T16:20:17.402Z,99435.13
2023-04-18T16:22:47.525Z,99430.94
2023-04-18T16:25:15.692Z,99432.75
2023-04-18T16:27:44.829Z,99442.03
2023-04-18T16:30:13.661Z,99446.06
2023-04-18T16:32:42.682Z,99451.28
2023-04-18T16:35:10.944Z,99447.41
2023-04-18T16:37:40.085Z,99457.69
2023-04-18T16:40:08.874Z,99462.56
2023-04-18T16:42:37.003Z,99464.91
2023-04-18T16:45:05.995Z,99460.16
2023-04-18T16:47:34.553Z,99467.09
2023-04-18T16:50:03.623Z,99471.25
2023-04-18T16:52:31.132Z,99469.59
2023-04-18T16:54:58.870Z,99468.41
2023-04-18T16:57:26.700Z,99474.97
2023-04-18T16:59:55.241Z,99478.88
2023-04-18T17:02:23.435Z,99476.69
2023-04-18T17:04:51.072Z,99491.38
2023-04-18T17:07:20.181Z,99488.19
2023-04-18T17:09:47.639Z,99486.88
2023-04-18T17:12:15.163Z,99502.03
2023-04-18T17:14:42.649Z,99494.63
2023-04-18T17:17:10.178Z,99497.31
2023-04-18T17:19:37.853Z,99494.28
2023-04-18T17:22:05.325Z,99505.38
2023-04-18T17:24:34.343Z,99508.41
2023-04-18T17:27:02.338Z,99508.41
2023-04-18T17:29:30.298Z,99504.47
2023-04-18T17:31:58.045Z,99510.41
2023-04-18T17:34:26.310Z,99510.59
2023-04-18T17:36:53.883Z,99521.41
2023-04-18T17:39:21.887Z,99522.22
2023-04-18T17:41:51.557Z,99520.06
2023-04-18T17:44:19.159Z,99522.94
2023-04-18T17:46:47.720Z,99530.34
2023-04-18T17:49:16.282Z,99532.06
2023-04-18T17:51:44.573Z,99523.28
2023-04-18T17:54:12.596Z,99525.31
2023-04-18T17:56:40.721Z,99525.81
2023-04-18T17:59:09.730Z,99523.28
2023-04-18T18:01:37.820Z,99538.13
2023-04-18T18:04:05.598Z,99541.31
2023-04-18T18:06:33.333Z,99545.88
2023-04-18T18:09:01.026Z,99546.38
2023-04-18T18:11:28.516Z,99544.34
2023-04-18T18:13:56.525Z,99552.44
2023-04-18T18:16:25.548Z,99559.91
2023-04-18T18:18:53.284Z,99547.63
2023-04-18T18:21:20.840Z,99566.31
2023-04-18T18:23:48.379Z,99559.75
2023-04-18T18:26:16.036Z,99559.25
2023-04-18T18:28:43.664Z,99567.84
2023-04-18T18:31:11.254Z,99565.13
2023-04-18T18:33:40.333Z,99572.44
2023-04-18T18:36:07.975Z,99571.22
2023-04-18T18:38:36.105Z,99573.59
2023-04-18T18:41:03.956Z,99576.97
2023-04-18T18:43:32.305Z,99574.94
2023-04-18T18:45:59.925Z,99578.00
2023-04-18T18:48:27.879Z,99578.16
2023-04-18T18:50:56.855Z,99579.28
2023-04-18T18:53:24.778Z,99593.66
2023-04-18T18:55:52.368Z,99589.94
2023-04-18T18:58:19.896Z,99591.13
2023-04-18T19:00:47.514Z,99588.41
2023-04-18T19:03:15.091Z,99596.03
2023-04-18T19:05:42.579Z,99593.50
2023-04-18T19:08:11.622Z,99599.75
2023-04-18T19:10:39.351Z,99594.69
2023-04-18T19:13:06.828Z,99597.19
2023-04-18T19:15:34.545Z,99598.56
2023-04-18T19:18:02.173Z,99594.84
2023-04-18T19:20:29.674Z,99601.63
2023-04-18T19:22:57.199Z,99601.25
2023-04-18T19:25:26.251Z,99600.06
2023-04-18T19:27:53.801Z,99603.97
2023-04-18T19:30:21.372Z,99605.47
2023-04-18T19:32:49.116Z,99608.81
2023-04-18T19:35:16.690Z,99607.50
2023-04-18T19:37:44.153Z,99605.81
2023-04-18T19:40:12.326Z,99616.25
2023-04-18T19:42:41.389Z,99608.00
2023-04-18T19:45:09.793Z,99612.53
2023-04-18T19:47:37.313Z,99612.41
2023-04-18T19:50:06.009Z,99613.91
2023-04-18T19:52:33.523Z,99614.56
2023-04-18T19:55:01.046Z,99622.00
2023-04-18T19:57:28.589Z,99621.50
2023-04-18T19:59:57.682Z,99625.03
2023-04-18T20:02:25.216Z,99619.13
2023-04-18T20:04:52.944Z,99618.47
2023-04-18T20:07:20.669Z,99622.50
2023-04-18T20:09:48.113Z,99619.13
2023-04-18T20:12:15.549Z,99618.59
2023-04-18T20:14:43.018Z,99622.47
2023-04-18T20:17:12.361Z,99626.47
2023-04-18T20:19:39.906Z,99626.81
2023-04-18T20:22:07.469Z,99628.84
2023-04-18T20:24:35.454Z,99630.69
2023-04-18T20:27:02.898Z,99626.97
2023-04-18T20:29:30.401Z,99630.19
2023-04-18T20:31:58.331Z,99632.88
2023-04-18T20:34:27.205Z,99636.09
2023-04-18T20:36:55.203Z,99633.91
2023-04-18T20:39:22.789Z,99635.59
2023-04-18T20:41:50.478Z,99641.66
2023-04-18T20:44:18.756Z,99635.06
2023-04-18T20:46:46.266Z,99639.63
2023-04-18T20:49:14.033Z,99640.31
2023-04-18T20:51:43.149Z,99642.66
2023-04-18T20:54:10.726Z,99640.47
2023-04-18T20:56:38.316Z,99648.56
2023-04-18T20:59:05.916Z,99643.00
2023-04-18T21:01:33.797Z,99646.88
2023-04-18T21:04:02.761Z,99645.69
2023-04-18T21:06:30.926Z,99644.53
2023-04-18T21:08:59.993Z,99644.53
2023-04-18T21:11:27.484Z,99648.72
2023-04-18T21:13:54.900Z,99648.03
2023-04-18T21:16:22.920Z,99644.69
2023-04-18T21:18:50.871Z,99646.69
2023-04-18T21:21:18.766Z,99645.34
2023-04-18T21:23:46.360Z,99656.00
2023-04-18T21:26:15.584Z,99661.38
2023-04-18T21:28:53.291Z,99659.88
2023-04-18T21:31:20.812Z,99657.84
2023-04-18T21:33:51.458Z,99659.50
2023-04-18T21:36:18.866Z,99668.31
2023-04-18T21:38:46.336Z,99663.56
2023-04-18T21:41:16.634Z,99664.22
2023-04-18T21:43:44.326Z,99664.88
2023-04-18T21:46:12.075Z,99667.94
2023-04-18T21:48:40.215Z,99665.91
2023-04-18T21:51:08.390Z,99667.94
2023-04-18T21:53:36.064Z,99670.13
2023-04-18T21:56:03.538Z,99670.97
2023-04-18T21:58:32.449Z,99672.66
2023-04-18T22:01:00.255Z,99677.22
2023-04-18T22:03:28.616Z,99674.50
2023-04-18T22:05:56.623Z,99672.31
2023-04-18T22:08:24.274Z,99672.66
2023-04-18T22:10:51.904Z,99672.47
2023-04-18T22:13:19.407Z,99665.22
2023-04-18T22:15:48.394Z,99673.66
2023-04-18T22:18:16.188Z,99669.28
2023-04-18T22:20:44.175Z,99668.59
2023-04-18T22:23:11.648Z,99669.78
2023-04-18T22:25:39.133Z,99671.47
2023-04-18T22:28:06.669Z,99674.34
2023-04-18T22:30:34.801Z,99673.50
2023-04-18T22:33:04.074Z,99676.56
2023-04-18T22:35:31.525Z,99675.03
2023-04-18T22:37:58.954Z,99668.63
2023-04-18T22:40:26.379Z,99672.84
2023-04-18T22:42:53.871Z,99673.84
2023-04-18T22:45:21.293Z,99670.97
2023-04-18T22:47:48.997Z,99676.53
2023-04-18T22:50:18.186Z,99673.34
2023-04-18T22:52:45.627Z,99671.28
2023-04-18T22:55:13.067Z,99674.16
2023-04-18T22:57:40.896Z,99670.09
2023-04-18T23:00:09.443Z,99671.28
2023-04-18T23:02:37.222Z,99672.97
2023-04-18T23:05:05.610Z,99679.41
2023-04-18T23:07:34.773Z,99679.22
2023-04-18T23:10:04.025Z,99676.69
2023-04-18T23:12:31.495Z,99675.19
2023-04-18T23:14:59.515Z,99673.66
2023-04-18T23:17:27.177Z,99675.19
2023-04-18T23:19:54.918Z,99676.53
2023-04-18T23:22:22.388Z,99678.38
2023-04-18T23:24:51.337Z,99681.06
2023-04-18T23:27:19.698Z,99672.66
2023-04-18T23:29:48.028Z,99676.03
2023-04-18T23:32:15.478Z,99675.38
2023-04-18T23:34:42.933Z,99678.06
2023-04-18T23:37:10.405Z,99679.22
2023-04-18T23:39:37.818Z,99678.75
2023-04-18T23:42:07.461Z,99675.84
2023-04-18T23:44:34.507Z,99681.44
2023-04-18T23:47:02.303Z,99684.44
2023-04-18T23:49:29.838Z,99683.78
2023-04-18T23:51:57.343Z,99683.94
2023-04-18T23:54:24.808Z,99677.72
2023-04-18T23:56:52.556Z,99680.06
2023-04-18T23:59:21.801Z,99684.97
